createdAt,value
2022-11-10T00:01:06.586Z,10.30
2022-11-10T00:03:34.443Z,10.20
2022-11-10T00:06:05.492Z,10.20
2022-11-10T00:08:32.151Z,10.20
2022-11-10T00:10:59.095Z,10.20
2022-11-10T00:13:35.171Z,10.20
2022-11-10T00:16:23.376Z,10.10
2022-11-10T00:18:50.833Z,10.20
2022-11-10T00:21:18.470Z,10.20
2022-11-10T00:23:47.701Z,10.30
2022-11-10T00:26:19.908Z,10.20
2022-11-10T00:28:46.945Z,10.20
2022-11-10T00:31:13.714Z,10.20
2022-11-10T00:33:42.791Z,10.20
2022-11-10T00:36:09.677Z,10.20
2022-11-10T00:38:36.417Z,10.20
2022-11-10T00:41:03.729Z,10.20
2022-11-10T00:43:30.970Z,10.20
2022-11-10T00:45:57.939Z,10.30
2022-11-10T00:48:24.898Z,10.20
2022-11-10T00:50:52.338Z,10.20
2022-11-10T00:53:19.362Z,10.20
2022-11-10T00:55:46.373Z,10.20
2022-11-10T00:58:13.157Z,10.20
2022-11-10T01:00:40.193Z,10.20
2022-11-10T01:03:07.208Z,10.20
2022-11-10T01:05:38.085Z,10.20
2022-11-10T01:08:05.188Z,10.10
2022-11-10T01:10:32.104Z,10.00
2022-11-10T01:12:59.163Z,10.00
2022-11-10T01:15:27.805Z,10.00
2022-11-10T01:17:56.160Z,9.90
2022-11-10T01:20:23.661Z,9.80
2022-11-10T01:22:50.291Z,9.80
2022-11-10T01:25:17.131Z,9.70
2022-11-10T01:27:43.872Z,9.60
2022-11-10T01:30:11.031Z,9.50
2022-11-10T01:32:37.673Z,9.50
2022-11-10T01:35:04.749Z,9.40
2022-11-10T01:37:31.468Z,9.40
2022-11-10T01:39:58.196Z,9.30
2022-11-10T01:42:27.044Z,9.30
2022-11-10T01:45:24.402Z,9.30
2022-11-10T01:47:53.877Z,9.30
2022-11-10T01:50:24.157Z,9.30
2022-11-10T01:52:54.391Z,9.30
2022-11-10T01:55:21.445Z,9.20
2022-11-10T01:57:48.126Z,9.20
2022-11-10T02:00:15.301Z,9.20
2022-11-10T02:02:52.673Z,9.20
2022-11-10T02:05:21.142Z,9.10
2022-11-10T02:07:48.706Z,9.10
2022-11-10T02:10:18.174Z,9.10
2022-11-10T02:12:45.474Z,9.10
2022-11-10T02:15:15.284Z,9.00
2022-11-10T02:17:43.228Z,9.10
2022-11-10T02:20:12.584Z,9.10
2022-11-10T02:22:39.773Z,9.00
2022-11-10T02:25:07.568Z,9.00
2022-11-10T02:27:34.634Z,9.00
2022-11-10T02:30:01.553Z,9.00
2022-11-10T02:32:28.681Z,9.00
2022-11-10T02:34:55.380Z,8.90
2022-11-10T02:37:22.124Z,8.80
2022-11-10T02:39:48.755Z,8.80
2022-11-10T02:42:15.433Z,8.80
2022-11-10T02:44:42.858Z,8.70
2022-11-10T02:47:09.657Z,8.60
2022-11-10T02:49:36.298Z,8.60
2022-11-10T02:52:02.942Z,8.50
2022-11-10T02:54:29.547Z,8.60
2022-11-10T02:56:56.208Z,8.60
2022-11-10T02:59:22.904Z,8.60
2022-11-10T03:01:49.530Z,8.60
2022-11-10T03:04:16.165Z,8.60
2022-11-10T03:06:42.822Z,8.60
2022-11-10T03:09:09.572Z,8.60
2022-11-10T03:11:36.176Z,8.70
2022-11-10T03:14:03.008Z,8.70
2022-11-10T03:16:30.170Z,8.70
2022-11-10T03:18:56.843Z,8.70
2022-11-10T03:21:23.460Z,8.70
2022-11-10T03:23:50.134Z,8.70
2022-11-10T03:26:17.487Z,8.60
2022-11-10T03:28:44.112Z,8.60
2022-11-10T03:31:10.733Z,8.70
2022-11-10T03:33:37.657Z,8.70
2022-11-10T03:36:04.503Z,8.70
2022-11-10T03:38:31.134Z,8.70
2022-11-10T03:41:18.036Z,8.70
2022-11-10T03:43:44.629Z,8.70
2022-11-10T03:46:11.283Z,8.70
2022-11-10T03:48:37.939Z,8.70
2022-11-10T03:51:04.636Z,8.60
2022-11-10T03:53:31.290Z,8.70
2022-11-10T03:56:01.498Z,8.60
2022-11-10T03:58:28.162Z,8.60
2022-11-10T04:00:55.814Z,8.50
2022-11-10T04:03:23.448Z,8.50
2022-11-10T04:06:13.986Z,8.50
2022-11-10T04:09:03.878Z,8.50
2022-11-10T04:11:49.738Z,8.40
2022-11-10T04:14:35.270Z,8.40
2022-11-10T04:17:02.326Z,8.40
2022-11-10T04:19:29.601Z,8.40
2022-11-10T04:21:56.290Z,8.30
2022-11-10T04:24:23.015Z,8.20
2022-11-10T04:26:50.272Z,8.20
2022-11-10T04:29:19.284Z,8.20
2022-11-10T04:31:46.283Z,8.30
2022-11-10T04:34:14.596Z,8.30
2022-11-10T04:36:43.585Z,8.20
2022-11-10T04:39:10.879Z,8.20
2022-11-10T04:41:37.661Z,8.20
2022-11-10T04:44:05.034Z,8.20
2022-11-10T04:46:37.302Z,8.20
2022-11-10T04:49:05.517Z,8.20
2022-11-10T04:51:35.942Z,8.20
2022-11-10T04:54:03.918Z,8.20
2022-11-10T04:56:31.031Z,8.10
2022-11-10T04:58:57.737Z,8.10
2022-11-10T05:01:27.128Z,8.10
2022-11-10T05:03:54.827Z,8.10
2022-11-10T05:06:22.304Z,8.10
2022-11-10T05:08:49.496Z,8.10
2022-11-10T05:11:17.089Z,8.10
2022-11-10T05:13:44.958Z,8.20
2022-11-10T05:16:12.284Z,8.20
2022-11-10T05:18:38.938Z,8.20
2022-11-10T05:21:05.768Z,8.20
2022-11-10T05:23:38.615Z,8.20
2022-11-10T05:26:06.016Z,8.20
2022-11-10T05:28:32.777Z,8.20
2022-11-10T05:30:59.475Z,8.20
2022-11-10T05:33:26.318Z,8.10
2022-11-10T05:35:53.078Z,8.10
2022-11-10T05:38:19.729Z,8.10
2022-11-10T05:40:46.483Z,8.00
2022-11-10T05:43:13.128Z,7.90
2022-11-10T05:45:39.773Z,7.90
2022-11-10T05:48:06.722Z,7.90
2022-11-10T05:50:33.439Z,7.80
2022-11-10T05:53:00.084Z,7.80
2022-11-10T05:55:28.524Z,7.80
2022-11-10T05:57:56.404Z,7.80
2022-11-10T06:00:25.474Z,7.70
2022-11-10T06:03:14.532Z,7.80
2022-11-10T06:05:41.480Z,7.80
2022-11-10T06:08:08.287Z,7.90
2022-11-10T06:10:36.255Z,7.80
2022-11-10T06:13:04.061Z,7.90
2022-11-10T06:15:30.959Z,7.90
2022-11-10T06:17:57.920Z,7.90
2022-11-10T06:20:25.803Z,7.90
2022-11-10T06:23:09.217Z,7.90
2022-11-10T06:25:37.482Z,7.90
2022-11-10T06:28:04.895Z,7.90
2022-11-10T06:30:33.194Z,7.90
2022-11-10T06:33:00.148Z,7.90
2022-11-10T06:35:27.537Z,7.90
2022-11-10T06:38:05.896Z,7.80
2022-11-10T06:40:33.368Z,7.80
2022-11-10T06:43:00.129Z,7.80
2022-11-10T06:45:28.491Z,7.70
2022-11-10T06:48:02.532Z,7.60
2022-11-10T06:50:29.781Z,7.60
2022-11-10T06:53:00.488Z,7.60
2022-11-10T06:55:27.854Z,7.60
2022-11-10T06:57:54.696Z,7.70
2022-11-10T07:00:21.996Z,7.70
2022-11-10T07:02:48.840Z,7.80
2022-11-10T07:05:15.586Z,7.80
2022-11-10T07:07:42.319Z,7.80
2022-11-10T07:10:09.173Z,7.70
2022-11-10T07:12:35.785Z,7.80
2022-11-10T07:15:02.470Z,7.80
2022-11-10T07:17:29.076Z,7.90
2022-11-10T07:19:55.690Z,7.90
2022-11-10T07:22:22.334Z,8.00
2022-11-10T07:24:48.961Z,8.20
2022-11-10T07:27:15.578Z,8.30
2022-11-10T07:29:42.238Z,8.50
2022-11-10T07:32:08.881Z,8.50
2022-11-10T07:34:35.506Z,8.60
2022-11-10T07:37:02.133Z,8.70
2022-11-10T07:39:28.748Z,8.80
2022-11-10T07:41:55.990Z,8.90
2022-11-10T07:44:22.592Z,9.00
2022-11-10T07:46:49.294Z,9.10
2022-11-10T07:49:15.932Z,9.00
2022-11-10T07:51:43.279Z,9.20
2022-11-10T07:54:10.085Z,9.20
2022-11-10T07:56:36.709Z,9.30
2022-11-10T07:59:03.521Z,9.40
2022-11-10T08:01:30.328Z,9.50
2022-11-10T08:03:56.999Z,9.50
2022-11-10T08:06:23.762Z,9.70
2022-11-10T08:08:50.807Z,9.90
2022-11-10T08:11:17.553Z,10.30
2022-11-10T08:13:44.158Z,10.70
2022-11-10T08:16:10.761Z,11.20
2022-11-10T08:18:37.380Z,11.90
2022-11-10T08:21:04.869Z,12.70
2022-11-10T08:23:31.534Z,13.20
2022-11-10T08:25:59.987Z,13.80
2022-11-10T08:28:27.448Z,14.60
2022-11-10T08:30:54.343Z,15.30
2022-11-10T08:33:22.197Z,16.00
2022-11-10T08:35:50.932Z,17.00
2022-11-10T08:38:20.055Z,18.20
2022-11-10T08:40:46.778Z,19.40
2022-11-10T08:43:14.349Z,20.20
2022-11-10T08:45:42.513Z,21.30
2022-11-10T08:48:12.218Z,22.20
2022-11-10T08:50:39.352Z,22.90
2022-11-10T08:53:17.597Z,22.90
2022-11-10T08:55:44.580Z,22.70
2022-11-10T08:58:16.632Z,23.40
2022-11-10T09:00:43.436Z,23.90
2022-11-10T09:03:19.102Z,24.50
2022-11-10T09:05:47.157Z,25.00
2022-11-10T09:08:14.560Z,25.10
2022-11-10T09:10:44.024Z,25.20
2022-11-10T09:13:12.556Z,25.50
2022-11-10T09:15:40.177Z,26.10
2022-11-10T09:18:07.798Z,26.70
2022-11-10T09:20:36.722Z,26.50
2022-11-10T09:23:10.595Z,26.70
2022-11-10T09:25:38.341Z,26.70
2022-11-10T09:28:05.317Z,26.90
2022-11-10T09:30:32.411Z,26.60
2022-11-10T09:33:00.414Z,26.80
2022-11-10T09:35:27.849Z,27.10
2022-11-10T09:37:54.470Z,26.30
2022-11-10T09:40:43.411Z,25.60
2022-11-10T09:43:20.288Z,24.20
2022-11-10T09:45:50.863Z,22.30
2022-11-10T09:48:29.400Z,21.90
2022-11-10T09:51:01.303Z,20.50
2022-11-10T09:53:50.647Z,19.40
2022-11-10T09:56:27.537Z,18.30
2022-11-10T09:58:54.345Z,17.40
2022-11-10T10:01:49.117Z,16.70
2022-11-10T10:04:32.828Z,16.30
2022-11-10T10:07:34.246Z,16.00
2022-11-10T10:10:04.779Z,15.60
2022-11-10T10:12:47.529Z,15.40
2022-11-10T10:15:58.481Z,15.20
2022-11-10T10:18:48.000Z,15.10
2022-11-10T10:21:26.378Z,15.20
2022-11-10T10:24:09.379Z,15.20
2022-11-10T10:26:51.504Z,15.20
2022-11-10T10:29:28.588Z,15.20
2022-11-10T10:32:01.040Z,15.30
2022-11-10T10:34:31.347Z,15.30
2022-11-10T10:36:58.341Z,15.10
2022-11-10T10:39:34.656Z,15.00
2022-11-10T10:42:01.345Z,15.00
2022-11-10T10:44:27.982Z,14.80
2022-11-10T10:46:59.948Z,14.80
2022-11-10T10:49:29.191Z,15.10
2022-11-10T10:52:14.052Z,17.30
2022-11-10T10:54:41.214Z,20.70
2022-11-10T10:57:16.899Z,23.00
2022-11-10T10:59:43.575Z,25.60
2022-11-10T11:02:25.752Z,27.50
2022-11-10T11:05:19.680Z,28.60
2022-11-10T11:07:58.873Z,29.80
2022-11-10T11:10:35.250Z,30.70
2022-11-10T11:13:25.130Z,31.00
2022-11-10T11:16:03.904Z,30.50
2022-11-10T11:18:32.362Z,31.10
2022-11-10T11:21:20.920Z,30.60
2022-11-10T11:24:13.015Z,31.00
2022-11-10T11:27:04.321Z,32.00
2022-11-10T11:29:45.985Z,32.50
2022-11-10T11:32:27.830Z,32.60
2022-11-10T11:35:25.644Z,32.30
2022-11-10T11:38:10.375Z,32.90
2022-11-10T11:40:57.405Z,32.90
2022-11-10T11:43:44.726Z,32.70
2022-11-10T11:46:49.288Z,33.30
2022-11-10T11:49:34.471Z,33.80
2022-11-10T11:52:01.248Z,33.10
2022-11-10T11:55:07.006Z,32.30
2022-11-10T11:58:20.290Z,31.60
2022-11-10T12:00:56.702Z,32.00
2022-11-10T12:03:49.005Z,30.70
2022-11-10T12:06:32.759Z,29.70
2022-11-10T12:09:30.310Z,28.80
2022-11-10T12:12:10.525Z,28.60
2022-11-10T12:14:48.952Z,29.60
2022-11-10T12:17:24.610Z,29.80
2022-11-10T12:20:23.103Z,30.80
2022-11-10T12:22:55.842Z,30.50
2022-11-10T12:25:40.505Z,30.40
2022-11-10T12:28:25.624Z,30.10
2022-11-10T12:31:01.589Z,30.40
2022-11-10T12:33:44.063Z,31.30
2022-11-10T12:36:13.861Z,31.20
2022-11-10T12:39:04.624Z,31.10
2022-11-10T12:41:44.056Z,31.10
2022-11-10T12:44:21.178Z,31.90
2022-11-10T12:46:52.521Z,32.50
2022-11-10T12:49:40.894Z,32.50
2022-11-10T12:52:19.412Z,32.20
2022-11-10T12:54:47.167Z,32.60
2022-11-10T12:57:19.453Z,32.30
2022-11-10T12:59:56.606Z,31.70
2022-11-10T13:02:36.907Z,32.10
2022-11-10T13:05:28.875Z,32.20
2022-11-10T13:08:33.591Z,32.20
2022-11-10T13:11:07.630Z,32.20
2022-11-10T13:13:59.470Z,32.00
2022-11-10T13:16:38.829Z,31.20
2022-11-10T13:19:10.510Z,31.10
2022-11-10T13:21:52.450Z,31.20
2022-11-10T13:24:22.021Z,31.40
2022-11-10T13:26:50.966Z,31.50
2022-11-10T13:29:27.976Z,31.40
2022-11-10T13:31:56.382Z,30.80
2022-11-10T13:34:37.448Z,30.40
2022-11-10T13:37:29.622Z,30.30
2022-11-10T13:40:18.114Z,29.30
2022-11-10T13:43:05.274Z,27.70
2022-11-10T13:45:40.077Z,26.80
2022-11-10T13:48:12.584Z,26.10
2022-11-10T13:50:45.177Z,26.30
2022-11-10T13:53:17.735Z,26.20
2022-11-10T13:55:50.016Z,26.10
2022-11-10T13:58:35.835Z,26.10
2022-11-10T14:01:17.513Z,25.20
2022-11-10T14:03:47.622Z,24.40
2022-11-10T14:06:26.154Z,23.20
2022-11-10T14:09:18.750Z,21.80
2022-11-10T14:11:59.078Z,20.70
2022-11-10T14:14:53.652Z,20.00
2022-11-10T14:17:25.602Z,19.20
2022-11-10T14:19:52.333Z,18.70
2022-11-10T14:22:37.828Z,18.20
2022-11-10T14:25:37.427Z,17.90
2022-11-10T14:28:24.043Z,17.50
2022-11-10T14:30:52.716Z,17.10
2022-11-10T14:33:20.789Z,16.90
2022-11-10T14:35:59.798Z,16.70
2022-11-10T14:38:33.904Z,16.50
2022-11-10T14:41:02.540Z,16.30
2022-11-10T14:43:35.876Z,16.10
2022-11-10T14:46:03.862Z,15.80
2022-11-10T14:48:32.885Z,15.80
2022-11-10T14:51:27.549Z,15.70
2022-11-10T14:53:56.067Z,15.60
2022-11-10T14:56:27.186Z,15.60
2022-11-10T14:58:55.845Z,15.50
2022-11-10T15:01:34.617Z,15.50
2022-11-10T15:04:03.674Z,15.50
2022-11-10T15:06:31.276Z,15.40
2022-11-10T15:08:58.865Z,15.30
2022-11-10T15:11:50.498Z,15.20
2022-11-10T15:14:45.429Z,15.20
2022-11-10T15:17:17.822Z,15.20
2022-11-10T15:19:48.458Z,15.10
2022-11-10T15:22:30.709Z,15.00
2022-11-10T15:25:00.378Z,15.00
2022-11-10T15:27:29.966Z,14.90
2022-11-10T15:29:59.527Z,14.80
2022-11-10T15:32:35.190Z,14.70
2022-11-10T15:35:09.945Z,14.60
2022-11-10T15:37:37.074Z,14.60
2022-11-10T15:40:31.761Z,14.50
2022-11-10T15:43:25.326Z,14.30
2022-11-10T15:46:13.740Z,14.20
2022-11-10T15:48:50.472Z,14.10
2022-11-10T15:51:25.674Z,14.00
2022-11-10T15:53:53.347Z,13.90
2022-11-10T15:56:23.578Z,13.80
2022-11-10T15:58:57.665Z,13.80
2022-11-10T16:01:27.875Z,13.70
2022-11-10T16:03:55.151Z,13.60
2022-11-10T16:06:21.844Z,13.50
2022-11-10T16:08:48.509Z,13.50
2022-11-10T16:11:20.180Z,13.40
2022-11-10T16:13:48.995Z,13.30
2022-11-10T16:16:18.629Z,13.20
2022-11-10T16:18:45.331Z,13.10
2022-11-10T16:21:17.003Z,13.00
2022-11-10T16:23:44.143Z,13.00
2022-11-10T16:26:19.450Z,12.90
2022-11-10T16:28:47.712Z,12.90
2022-11-10T16:31:21.804Z,12.80
2022-11-10T16:33:49.191Z,12.70
2022-11-10T16:36:27.926Z,12.60
2022-11-10T16:38:55.048Z,12.60
2022-11-10T16:41:22.056Z,12.50
2022-11-10T16:43:49.025Z,12.40
2022-11-10T16:46:28.368Z,12.40
2022-11-10T16:48:59.902Z,12.20
2022-11-10T16:51:48.508Z,12.20
2022-11-10T16:54:16.622Z,12.10
2022-11-10T16:56:43.343Z,12.00
2022-11-10T16:59:10.656Z,11.80
2022-11-10T17:01:38.851Z,11.80
2022-11-10T17:04:10.151Z,11.70
2022-11-10T17:06:36.868Z,11.60
2022-11-10T17:09:10.146Z,11.50
2022-11-10T17:11:36.777Z,11.40
2022-11-10T17:14:03.467Z,11.40
2022-11-10T17:16:38.265Z,11.30
2022-11-10T17:19:07.624Z,11.20
2022-11-10T17:21:36.348Z,11.10
2022-11-10T17:24:04.013Z,11.00
2022-11-10T17:26:31.389Z,10.90
2022-11-10T17:28:58.033Z,10.90
2022-11-10T17:31:24.652Z,10.80
2022-11-10T17:33:51.285Z,10.80
2022-11-10T17:36:20.958Z,10.80
2022-11-10T17:38:47.697Z,10.80
2022-11-10T17:41:19.202Z,10.70
2022-11-10T17:43:46.534Z,10.70
2022-11-10T17:46:14.616Z,10.70
2022-11-10T17:48:41.723Z,10.70
2022-11-10T17:51:13.610Z,10.60
2022-11-10T17:53:40.333Z,10.60
2022-11-10T17:56:07.192Z,10.40
2022-11-10T17:58:33.972Z,10.40
2022-11-10T18:01:00.784Z,10.30
2022-11-10T18:03:27.458Z,10.30
2022-11-10T18:05:54.090Z,10.30
2022-11-10T18:08:20.886Z,10.30
2022-11-10T18:10:50.002Z,10.20
2022-11-10T18:13:18.390Z,10.20
2022-11-10T18:15:46.641Z,10.20
2022-11-10T18:18:15.234Z,10.20
2022-11-10T18:20:42.419Z,10.10
2022-11-10T18:23:12.244Z,10.00
2022-11-10T18:25:40.158Z,9.90
2022-11-10T18:28:07.012Z,9.90
2022-11-10T18:30:35.355Z,9.90
2022-11-10T18:33:03.272Z,9.90
2022-11-10T18:35:29.968Z,9.90
2022-11-10T18:37:57.712Z,9.90
2022-11-10T18:40:24.640Z,9.90
2022-11-10T18:42:51.291Z,9.80
2022-11-10T18:45:17.925Z,9.70
2022-11-10T18:47:44.546Z,9.60
2022-11-10T18:50:11.261Z,9.60
2022-11-10T18:52:37.876Z,9.50
2022-11-10T18:55:04.752Z,9.50
2022-11-10T18:57:31.349Z,9.50
2022-11-10T18:59:57.982Z,9.50
2022-11-10T19:02:24.618Z,9.40
2022-11-10T19:04:53.658Z,9.40
2022-11-10T19:07:20.895Z,9.30
2022-11-10T19:09:47.687Z,9.30
2022-11-10T19:12:14.437Z,9.30
2022-11-10T19:14:41.407Z,9.30
2022-11-10T19:17:08.070Z,9.30
2022-11-10T19:19:35.066Z,9.10
2022-11-10T19:22:01.892Z,9.00
2022-11-10T19:24:32.217Z,8.90
2022-11-10T19:27:04.470Z,8.90
2022-11-10T19:29:31.280Z,8.90
2022-11-10T19:31:57.895Z,8.90
2022-11-10T19:34:24.574Z,8.90
2022-11-10T19:36:51.213Z,8.80
2022-11-10T19:39:17.865Z,8.80
2022-11-10T19:41:44.491Z,8.70
2022-11-10T19:44:11.141Z,8.60
2022-11-10T19:46:38.917Z,8.60
2022-11-10T19:49:06.254Z,8.50
2022-11-10T19:51:33.364Z,8.50
2022-11-10T19:54:02.002Z,8.40
2022-11-10T19:56:32.153Z,8.40
2022-11-10T19:58:59.374Z,8.30
2022-11-10T20:01:26.530Z,8.20
2022-11-10T20:03:53.349Z,8.10
2022-11-10T20:06:22.516Z,8.10
2022-11-10T20:08:49.783Z,8.00
2022-11-10T20:11:18.065Z,7.90
2022-11-10T20:13:44.773Z,7.80
2022-11-10T20:16:12.670Z,7.80
2022-11-10T20:18:40.661Z,7.70
2022-11-10T20:21:10.204Z,7.70
2022-11-10T20:23:36.967Z,7.60
2022-11-10T20:26:06.083Z,7.70
2022-11-10T20:28:35.734Z,7.70
2022-11-10T20:31:04.669Z,7.60
2022-11-10T20:33:32.418Z,7.60
2022-11-10T20:36:07.356Z,7.60
2022-11-10T20:38:34.254Z,7.60
2022-11-10T20:41:06.360Z,7.60
2022-11-10T20:43:34.557Z,7.70
2022-11-10T20:46:01.648Z,7.70
2022-11-10T20:48:33.678Z,7.70
2022-11-10T20:51:01.387Z,7.80
2022-11-10T20:53:31.109Z,7.80
2022-11-10T20:56:00.788Z,7.80
2022-11-10T20:58:28.565Z,7.70
2022-11-10T21:00:55.694Z,7.70
2022-11-10T21:03:22.919Z,7.70
2022-11-10T21:05:54.487Z,7.60
2022-11-10T21:08:21.567Z,7.50
2022-11-10T21:10:57.260Z,7.50
2022-11-10T21:13:25.066Z,7.50
2022-11-10T21:15:54.670Z,7.50
2022-11-10T21:18:21.904Z,7.50
2022-11-10T21:20:48.915Z,7.50
2022-11-10T21:23:15.570Z,7.50
2022-11-10T21:25:42.194Z,7.50
2022-11-10T21:28:08.885Z,7.60
2022-11-10T21:30:36.108Z,7.60
2022-11-10T21:33:05.779Z,7.70
2022-11-10T21:35:38.189Z,7.70
2022-11-10T21:38:05.577Z,7.70
2022-11-10T21:40:33.272Z,7.80
2022-11-10T21:43:00.105Z,7.80
2022-11-10T21:45:26.773Z,7.70
2022-11-10T21:47:53.540Z,7.70
2022-11-10T21:50:20.175Z,7.70
2022-11-10T21:52:46.827Z,7.70
2022-11-10T21:55:13.506Z,7.70
2022-11-10T21:57:40.190Z,7.60
2022-11-10T22:00:07.468Z,7.60
2022-11-10T22:02:34.107Z,7.60
2022-11-10T22:05:00.729Z,7.50
2022-11-10T22:07:27.434Z,7.50
2022-11-10T22:10:13.969Z,7.50
2022-11-10T22:13:00.545Z,7.40
2022-11-10T22:15:45.886Z,7.30
2022-11-10T22:18:33.077Z,7.30
2022-11-10T22:20:59.883Z,7.20
2022-11-10T22:23:45.997Z,7.10
2022-11-10T22:26:13.047Z,7.10
2022-11-10T22:28:39.980Z,7.10
2022-11-10T22:31:08.445Z,7.10
2022-11-10T22:33:37.008Z,7.00
2022-11-10T22:36:05.934Z,7.00
2022-11-10T22:38:37.831Z,7.00
2022-11-10T22:41:23.834Z,6.90
2022-11-10T22:44:06.306Z,6.90
2022-11-10T22:46:45.830Z,6.90
2022-11-10T22:49:15.000Z,6.80
2022-11-10T22:51:43.966Z,6.80
2022-11-10T22:54:13.118Z,6.80
2022-11-10T22:56:40.319Z,6.70
2022-11-10T22:59:07.344Z,6.70
2022-11-10T23:01:34.881Z,6.60
2022-11-10T23:04:02.652Z,6.60
2022-11-10T23:06:31.756Z,6.60
2022-11-10T23:08:59.429Z,6.50
2022-11-10T23:11:28.661Z,6.40
2022-11-10T23:13:55.545Z,6.40
2022-11-10T23:16:27.223Z,6.40
2022-11-10T23:18:55.219Z,6.40
2022-11-10T23:21:24.204Z,6.30
2022-11-10T23:23:51.614Z,6.20
2022-11-10T23:26:21.393Z,6.20
2022-11-10T23:28:48.131Z,6.10
2022-11-10T23:31:17.664Z,6.10
2022-11-10T23:33:45.702Z,6.10
2022-11-10T23:36:14.396Z,6.10
2022-11-10T23:38:42.297Z,6.00
2022-11-10T23:41:14.764Z,6.00
2022-11-10T23:43:41.743Z,5.90
2022-11-10T23:46:08.840Z,5.90
2022-11-10T23:48:36.932Z,5.90
2022-11-10T23:51:04.637Z,5.80
2022-11-10T23:53:31.982Z,5.80
2022-11-10T23:56:00.670Z,5.80
2022-11-10T23:58:28.249Z,5.80
